createdAt,value
2022-10-08T00:01:26.399Z,10.60
2022-10-08T00:03:54.968Z,11.00
2022-10-08T00:06:25.886Z,10.60
2022-10-08T00:08:56.334Z,10.50
2022-10-08T00:11:29.691Z,10.50
2022-10-08T00:13:57.783Z,10.50
2022-10-08T00:16:28.082Z,11.50
2022-10-08T00:19:03.792Z,10.50
2022-10-08T00:21:34.348Z,10.50
2022-10-08T00:24:04.208Z,10.70
2022-10-08T00:26:33.507Z,10.90
2022-10-08T00:29:04.314Z,10.40
2022-10-08T00:31:33.286Z,11.30
2022-10-08T00:34:03.546Z,10.30
2022-10-08T00:36:32.228Z,10.30
2022-10-08T00:39:06.078Z,10.40
2022-10-08T00:41:37.238Z,10.30
2022-10-08T00:44:43.579Z,10.20
2022-10-08T00:47:33.637Z,10.20
2022-10-08T00:50:11.756Z,10.20
2022-10-08T00:52:48.699Z,10.20
2022-10-08T00:55:19.994Z,10.20
2022-10-08T00:57:47.660Z,10.20
2022-10-08T01:00:22.239Z,11.40
2022-10-08T01:02:50.170Z,10.10
2022-10-08T01:05:22.934Z,10.10
2022-10-08T01:08:12.105Z,10.10
2022-10-08T01:10:45.239Z,10.10
2022-10-08T01:13:19.603Z,10.90
2022-10-08T01:15:57.544Z,10.00
2022-10-08T01:18:55.244Z,10.80
2022-10-08T01:21:52.332Z,9.90
2022-10-08T01:25:01.941Z,9.90
2022-10-08T01:27:42.924Z,9.80
2022-10-08T01:30:16.367Z,9.80
2022-10-08T01:32:51.253Z,9.70
2022-10-08T01:35:26.328Z,9.70
2022-10-08T01:37:57.399Z,9.70
2022-10-08T01:40:31.077Z,9.70
2022-10-08T01:43:00.836Z,9.70
2022-10-08T01:45:34.223Z,10.00
2022-10-08T01:48:06.564Z,9.70
2022-10-08T01:50:41.711Z,9.70
2022-10-08T01:53:13.145Z,9.70
2022-10-08T01:55:44.921Z,9.80
2022-10-08T01:58:18.617Z,9.60
2022-10-08T02:00:49.936Z,9.60
2022-10-08T02:03:17.495Z,9.60
2022-10-08T02:05:50.415Z,10.60
2022-10-08T02:08:18.632Z,9.50
2022-10-08T02:10:45.971Z,9.70
2022-10-08T02:13:13.619Z,9.60
2022-10-08T02:15:48.822Z,9.60
2022-10-08T02:18:24.354Z,9.50
2022-10-08T02:21:03.954Z,9.40
2022-10-08T02:23:40.017Z,9.40
2022-10-08T02:26:14.333Z,9.30
2022-10-08T02:28:57.138Z,9.30
2022-10-08T02:31:46.683Z,9.20
2022-10-08T02:34:37.824Z,9.10
2022-10-08T02:37:19.323Z,9.90
2022-10-08T02:39:51.256Z,9.00
2022-10-08T02:42:22.224Z,9.00
2022-10-08T02:45:07.629Z,10.20
2022-10-08T02:47:38.557Z,8.90
2022-10-08T02:50:11.676Z,8.80
2022-10-08T02:52:42.853Z,8.80
2022-10-08T02:55:38.028Z,8.80
2022-10-08T02:58:09.964Z,9.30
2022-10-08T03:00:49.720Z,8.70
2022-10-08T03:03:25.689Z,8.70
2022-10-08T03:05:54.411Z,8.70
2022-10-08T03:08:21.940Z,8.70
2022-10-08T03:10:50.597Z,10.00
2022-10-08T03:13:19.049Z,8.60
2022-10-08T03:15:49.630Z,8.60
2022-10-08T03:18:18.279Z,8.50
2022-10-08T03:20:49.515Z,8.50
2022-10-08T03:23:18.580Z,8.60
2022-10-08T03:25:46.163Z,10.10
2022-10-08T03:28:13.688Z,8.60
2022-10-08T03:30:41.392Z,8.60
2022-10-08T03:33:09.055Z,8.60
2022-10-08T03:35:36.519Z,9.30
2022-10-08T03:38:03.964Z,8.50
2022-10-08T03:40:31.474Z,8.40
2022-10-08T03:42:58.910Z,8.40
2022-10-08T03:45:26.352Z,8.40
2022-10-08T03:47:53.874Z,8.30
2022-10-08T03:50:22.035Z,8.30
2022-10-08T03:52:49.770Z,8.30
2022-10-08T03:55:17.938Z,8.20
2022-10-08T03:57:45.335Z,8.20
2022-10-08T04:00:13.215Z,8.10
2022-10-08T04:02:40.754Z,8.10
2022-10-08T04:05:08.633Z,8.10
2022-10-08T04:07:36.142Z,8.10
2022-10-08T04:10:03.975Z,8.10
2022-10-08T04:12:31.401Z,8.10
2022-10-08T04:14:59.005Z,8.10
2022-10-08T04:17:26.433Z,8.10
2022-10-08T04:19:53.919Z,8.10
2022-10-08T04:22:21.366Z,8.10
2022-10-08T04:24:48.769Z,8.10
2022-10-08T04:27:16.203Z,8.10
2022-10-08T04:29:43.800Z,8.20
2022-10-08T04:32:11.260Z,8.20
2022-10-08T04:34:38.708Z,8.20
2022-10-08T04:37:06.107Z,8.20
2022-10-08T04:39:33.938Z,8.60
2022-10-08T04:42:01.596Z,8.20
2022-10-08T04:44:29.034Z,8.20
2022-10-08T04:46:56.787Z,8.30
2022-10-08T04:49:25.503Z,8.40
2022-10-08T04:51:52.952Z,9.70
2022-10-08T04:54:20.350Z,9.40
2022-10-08T04:56:47.828Z,8.10
2022-10-08T04:59:15.445Z,8.00
2022-10-08T05:01:42.938Z,8.00
2022-10-08T05:04:10.450Z,8.00
2022-10-08T05:06:37.904Z,8.00
2022-10-08T05:09:05.460Z,8.00
2022-10-08T05:11:33.394Z,8.00
2022-10-08T05:14:01.189Z,7.90
2022-10-08T05:16:28.648Z,9.20
2022-10-08T05:18:56.815Z,8.10
2022-10-08T05:21:29.271Z,9.40
2022-10-08T05:23:57.882Z,9.30
2022-10-08T05:26:56.394Z,9.20
2022-10-08T05:29:16.293Z,7.80
2022-10-08T05:31:44.635Z,9.00
2022-10-08T05:34:13.599Z,9.70
2022-10-08T05:36:41.298Z,9.80
2022-10-08T05:39:10.194Z,9.80
2022-10-08T05:41:40.619Z,7.70
2022-10-08T05:44:09.979Z,7.70
2022-10-08T05:46:38.893Z,7.70
2022-10-08T05:49:08.804Z,7.70
2022-10-08T05:51:38.387Z,7.70
2022-10-08T05:54:05.906Z,7.90
2022-10-08T05:56:33.487Z,7.70
2022-10-08T05:59:00.907Z,8.00
2022-10-08T06:01:31.516Z,7.60
2022-10-08T06:04:07.833Z,7.70
2022-10-08T06:06:41.700Z,7.60
2022-10-08T06:09:12.877Z,7.60
2022-10-08T06:11:40.637Z,7.60
2022-10-08T06:14:11.363Z,8.30
2022-10-08T06:16:39.389Z,7.70
2022-10-08T06:19:07.849Z,7.70
2022-10-08T06:21:36.516Z,7.70
2022-10-08T06:24:06.834Z,7.70
2022-10-08T06:26:37.931Z,7.60
2022-10-08T06:29:12.563Z,9.20
2022-10-08T06:31:40.100Z,9.90
2022-10-08T06:34:07.868Z,8.00
2022-10-08T06:36:37.575Z,9.30
2022-10-08T06:39:07.909Z,7.50
2022-10-08T06:41:35.932Z,7.90
2022-10-08T06:44:06.285Z,7.60
2022-10-08T06:46:34.375Z,7.80
2022-10-08T06:49:03.397Z,9.50
2022-10-08T06:51:30.989Z,7.70
2022-10-08T06:54:06.000Z,7.70
2022-10-08T06:56:36.713Z,7.80
2022-10-08T06:59:05.597Z,7.80
2022-10-08T07:01:34.629Z,9.60
2022-10-08T07:04:03.302Z,7.80
2022-10-08T07:06:31.010Z,7.80
2022-10-08T07:09:00.870Z,9.80
2022-10-08T07:11:30.224Z,7.90
2022-10-08T07:13:57.860Z,7.90
2022-10-08T07:16:27.598Z,7.90
2022-10-08T07:18:57.096Z,8.00
2022-10-08T07:21:25.115Z,9.80
2022-10-08T07:23:52.956Z,8.10
2022-10-08T07:26:26.578Z,9.80
2022-10-08T07:29:05.779Z,8.30
2022-10-08T07:31:36.152Z,8.20
2022-10-08T07:34:06.770Z,10.10
2022-10-08T07:36:35.080Z,9.40
2022-10-08T07:39:07.986Z,9.70
2022-10-08T07:41:35.901Z,8.40
2022-10-08T07:44:04.725Z,8.40
2022-10-08T07:46:37.530Z,10.40
2022-10-08T07:49:05.263Z,10.00
2022-10-08T07:51:34.244Z,8.60
2022-10-08T07:54:04.816Z,8.70
2022-10-08T07:56:33.706Z,10.80
2022-10-08T07:59:02.071Z,8.70
2022-10-08T08:01:30.633Z,10.60
2022-10-08T08:04:00.930Z,9.50
2022-10-08T08:06:29.353Z,8.80
2022-10-08T08:08:57.011Z,8.90
2022-10-08T08:11:25.232Z,9.00
2022-10-08T08:13:52.869Z,9.00
2022-10-08T08:16:25.318Z,9.10
2022-10-08T08:18:55.786Z,9.90
2022-10-08T08:21:31.852Z,9.10
2022-10-08T08:24:05.130Z,11.30
2022-10-08T08:26:35.744Z,9.30
2022-10-08T08:29:06.466Z,9.30
2022-10-08T08:31:37.118Z,9.30
2022-10-08T08:34:10.548Z,9.40
2022-10-08T08:36:40.469Z,9.50
2022-10-08T08:39:13.836Z,11.20
2022-10-08T08:41:47.152Z,9.60
2022-10-08T08:44:21.980Z,10.90
2022-10-08T08:47:05.253Z,9.70
2022-10-08T08:49:41.619Z,9.70
2022-10-08T08:52:12.315Z,9.80
2022-10-08T08:54:39.908Z,9.90
2022-10-08T08:57:48.747Z,10.10
2022-10-08T09:00:22.367Z,10.00
2022-10-08T09:03:05.310Z,10.00
2022-10-08T09:05:39.067Z,10.00
2022-10-08T09:08:18.724Z,10.10
2022-10-08T09:10:54.069Z,10.10
2022-10-08T09:13:45.473Z,11.10
2022-10-08T09:16:16.519Z,11.10
2022-10-08T09:18:50.177Z,10.70
2022-10-08T09:21:18.620Z,10.30
2022-10-08T09:23:46.599Z,10.30
2022-10-08T09:26:21.745Z,10.50
2022-10-08T09:28:58.055Z,10.50
2022-10-08T09:31:40.385Z,10.50
2022-10-08T09:34:10.729Z,10.50
2022-10-08T09:37:00.326Z,10.60
2022-10-08T09:39:33.881Z,10.60
2022-10-08T09:42:07.444Z,10.70
2022-10-08T09:44:56.793Z,10.70
2022-10-08T09:47:25.960Z,10.90
2022-10-08T09:50:15.421Z,10.80
2022-10-08T09:52:43.231Z,10.90
2022-10-08T09:55:16.635Z,11.00
2022-10-08T09:57:54.060Z,11.00
2022-10-08T10:00:28.295Z,11.10
2022-10-08T10:02:57.999Z,11.10
2022-10-08T10:05:36.074Z,11.10
2022-10-08T10:08:03.883Z,11.10
2022-10-08T10:10:42.203Z,11.20
2022-10-08T10:13:20.365Z,11.20
2022-10-08T10:15:56.840Z,11.30
2022-10-08T10:18:32.621Z,11.30
2022-10-08T10:21:05.639Z,11.40
2022-10-08T10:23:39.108Z,11.40
2022-10-08T10:26:20.648Z,11.50
2022-10-08T10:28:59.859Z,11.50
2022-10-08T10:31:45.170Z,11.60
2022-10-08T10:34:28.328Z,11.60
2022-10-08T10:36:58.713Z,11.70
2022-10-08T10:39:41.547Z,11.70
2022-10-08T10:42:39.507Z,11.80
2022-10-08T10:45:23.306Z,11.90
2022-10-08T10:47:53.725Z,12.00
2022-10-08T10:50:48.388Z,12.00
2022-10-08T10:53:28.844Z,12.10
2022-10-08T10:56:18.414Z,12.10
2022-10-08T10:59:04.596Z,12.20
2022-10-08T11:02:09.348Z,12.30
2022-10-08T11:04:51.000Z,12.30
2022-10-08T11:07:34.040Z,12.30
2022-10-08T11:10:16.487Z,12.40
2022-10-08T11:12:59.368Z,12.50
2022-10-08T11:15:36.154Z,12.50
2022-10-08T11:18:03.614Z,12.60
2022-10-08T11:20:49.001Z,12.70
2022-10-08T11:23:42.146Z,12.80
2022-10-08T11:26:27.120Z,12.90
2022-10-08T11:29:14.280Z,13.00
2022-10-08T11:31:44.142Z,12.90
2022-10-08T11:34:29.586Z,13.10
2022-10-08T11:37:06.042Z,13.20
2022-10-08T11:39:52.385Z,13.20
2022-10-08T11:42:29.522Z,13.20
2022-10-08T11:45:29.510Z,13.10
2022-10-08T11:47:59.599Z,13.10
2022-10-08T11:50:32.980Z,13.20
2022-10-08T11:53:09.508Z,13.30
2022-10-08T11:55:47.370Z,13.50
2022-10-08T11:58:30.360Z,13.60
2022-10-08T12:01:06.585Z,13.70
2022-10-08T12:03:40.161Z,13.80
2022-10-08T12:06:29.807Z,13.90
2022-10-08T12:09:03.195Z,14.00
2022-10-08T12:11:39.698Z,14.20
2022-10-08T12:14:12.252Z,14.30
2022-10-08T12:16:48.670Z,14.30
2022-10-08T12:19:37.014Z,14.40
2022-10-08T12:22:16.641Z,14.40
2022-10-08T12:24:49.727Z,14.40
2022-10-08T12:27:18.055Z,14.40
2022-10-08T12:30:02.273Z,14.50
2022-10-08T12:32:51.101Z,14.50
2022-10-08T12:35:24.465Z,14.50
2022-10-08T12:37:52.384Z,14.60
2022-10-08T12:40:22.835Z,14.60
2022-10-08T12:42:58.254Z,14.70
2022-10-08T12:45:34.260Z,14.70
2022-10-08T12:48:12.192Z,14.70
2022-10-08T12:50:53.751Z,14.70
2022-10-08T12:53:22.200Z,14.70
2022-10-08T12:55:58.217Z,14.70
2022-10-08T12:58:35.576Z,14.80
2022-10-08T13:01:05.185Z,14.80
2022-10-08T13:03:32.915Z,14.80
2022-10-08T13:06:16.450Z,14.80
2022-10-08T13:08:44.985Z,14.90
2022-10-08T13:11:14.718Z,15.00
2022-10-08T13:13:49.513Z,15.00
2022-10-08T13:16:25.192Z,15.00
2022-10-08T13:18:58.704Z,15.00
2022-10-08T13:21:31.982Z,15.10
2022-10-08T13:24:04.009Z,15.10
2022-10-08T13:26:38.960Z,15.20
2022-10-08T13:29:21.503Z,15.20
2022-10-08T13:31:59.885Z,15.20
2022-10-08T13:34:55.761Z,15.30
2022-10-08T13:37:23.155Z,15.30
2022-10-08T13:39:54.908Z,15.30
2022-10-08T13:42:29.793Z,15.40
2022-10-08T13:45:02.128Z,15.40
2022-10-08T13:47:29.755Z,15.50
2022-10-08T13:50:03.373Z,15.50
2022-10-08T13:52:33.944Z,15.60
2022-10-08T13:55:04.732Z,15.70
2022-10-08T13:57:33.288Z,16.00
2022-10-08T14:00:01.783Z,16.20
2022-10-08T14:02:31.326Z,16.60
2022-10-08T14:04:59.350Z,16.90
2022-10-08T14:07:32.890Z,17.30
2022-10-08T14:10:07.114Z,17.70
2022-10-08T14:12:35.469Z,18.00
2022-10-08T14:15:03.058Z,18.30
2022-10-08T14:17:30.953Z,18.40
2022-10-08T14:19:59.014Z,18.60
2022-10-08T14:22:26.444Z,18.80
2022-10-08T14:24:53.996Z,18.80
2022-10-08T14:27:21.497Z,18.80
2022-10-08T14:29:48.950Z,18.80
2022-10-08T14:32:16.510Z,18.70
2022-10-08T14:34:43.933Z,18.80
2022-10-08T14:37:11.488Z,18.90
2022-10-08T14:39:39.056Z,18.90
2022-10-08T14:42:09.524Z,18.80
2022-10-08T14:44:36.964Z,18.50
2022-10-08T14:47:04.454Z,18.30
2022-10-08T14:49:31.960Z,18.10
2022-10-08T14:51:59.753Z,17.90
2022-10-08T14:54:28.076Z,17.60
2022-10-08T14:56:55.492Z,17.50
2022-10-08T14:59:22.960Z,17.30
2022-10-08T15:01:50.469Z,17.10
2022-10-08T15:04:18.013Z,16.90
2022-10-08T15:06:45.608Z,16.60
2022-10-08T15:09:15.338Z,16.40
2022-10-08T15:11:43.493Z,16.20
2022-10-08T15:14:11.168Z,16.10
2022-10-08T15:16:39.566Z,16.10
2022-10-08T15:19:07.784Z,15.90
2022-10-08T15:21:37.540Z,15.80
2022-10-08T15:24:05.123Z,15.80
2022-10-08T15:26:32.727Z,15.60
2022-10-08T15:29:01.307Z,15.60
2022-10-08T15:31:29.497Z,15.50
2022-10-08T15:33:59.591Z,15.40
2022-10-08T15:36:28.142Z,15.20
2022-10-08T15:39:06.215Z,15.20
2022-10-08T15:41:34.886Z,15.20
2022-10-08T15:44:29.665Z,15.10
2022-10-08T15:47:02.592Z,15.00
2022-10-08T15:49:33.892Z,15.00
2022-10-08T15:52:02.373Z,14.90
2022-10-08T15:54:30.121Z,14.80
2022-10-08T15:56:57.594Z,14.80
2022-10-08T15:59:25.085Z,14.70
2022-10-08T16:01:52.610Z,14.70
2022-10-08T16:04:20.083Z,14.70
2022-10-08T16:06:47.632Z,14.60
2022-10-08T16:09:16.897Z,14.60
2022-10-08T16:11:45.960Z,14.50
2022-10-08T16:14:16.687Z,14.40
2022-10-08T16:16:44.830Z,14.40
2022-10-08T16:19:13.274Z,14.30
2022-10-08T16:21:40.739Z,14.20
2022-10-08T16:24:08.882Z,14.20
2022-10-08T16:26:36.618Z,14.10
2022-10-08T16:29:06.863Z,14.00
2022-10-08T16:31:36.738Z,14.00
2022-10-08T16:34:07.446Z,13.90
2022-10-08T16:36:36.662Z,13.80
2022-10-08T16:39:06.315Z,13.70
2022-10-08T16:41:35.008Z,13.70
2022-10-08T16:44:12.741Z,13.60
2022-10-08T16:46:44.662Z,13.60
2022-10-08T16:49:23.676Z,13.50
2022-10-08T16:51:58.106Z,13.50
2022-10-08T16:54:26.845Z,13.40
2022-10-08T16:56:54.719Z,13.40
2022-10-08T16:59:24.923Z,13.30
2022-10-08T17:01:55.086Z,13.30
2022-10-08T17:04:24.550Z,13.20
2022-10-08T17:06:52.454Z,13.10
2022-10-08T17:09:20.731Z,13.00
2022-10-08T17:11:48.498Z,12.80
2022-10-08T17:14:15.967Z,12.70
2022-10-08T17:16:44.937Z,12.40
2022-10-08T17:19:13.139Z,12.30
2022-10-08T17:21:40.814Z,12.30
2022-10-08T17:24:10.680Z,12.00
2022-10-08T17:26:38.700Z,11.90
2022-10-08T17:29:09.303Z,11.80
2022-10-08T17:31:37.607Z,11.60
2022-10-08T17:34:05.301Z,11.50
2022-10-08T17:36:35.424Z,11.40
2022-10-08T17:39:06.012Z,11.60
2022-10-08T17:41:36.412Z,11.20
2022-10-08T17:44:06.916Z,11.10
2022-10-08T17:46:46.077Z,11.20
2022-10-08T17:49:15.784Z,11.10
2022-10-08T17:51:44.677Z,11.00
2022-10-08T17:54:15.193Z,10.90
2022-10-08T17:56:43.596Z,10.90
2022-10-08T17:59:19.814Z,10.80
2022-10-08T18:01:47.512Z,10.70
2022-10-08T18:04:17.479Z,10.50
2022-10-08T18:06:46.662Z,10.50
2022-10-08T18:09:18.489Z,10.40
2022-10-08T18:11:49.218Z,10.40
2022-10-08T18:14:17.385Z,11.20
2022-10-08T18:16:48.110Z,10.30
2022-10-08T18:19:17.035Z,10.20
2022-10-08T18:21:44.775Z,10.20
2022-10-08T18:24:12.214Z,10.20
2022-10-08T18:26:39.822Z,10.60
2022-10-08T18:29:13.451Z,10.10
2022-10-08T18:31:42.627Z,10.10
2022-10-08T18:34:14.574Z,10.10
2022-10-08T18:36:42.529Z,10.00
2022-10-08T18:39:15.398Z,10.00
2022-10-08T18:41:48.509Z,11.30
2022-10-08T18:44:22.237Z,9.90
2022-10-08T18:46:50.326Z,9.80
2022-10-08T18:49:20.123Z,9.80
2022-10-08T18:51:49.532Z,9.90
2022-10-08T18:54:18.749Z,9.70
2022-10-08T18:56:46.430Z,10.00
2022-10-08T18:59:15.534Z,11.60
2022-10-08T19:01:46.279Z,9.60
2022-10-08T19:04:19.505Z,9.60
2022-10-08T19:06:48.691Z,9.60
2022-10-08T19:09:16.709Z,9.60
2022-10-08T19:11:46.775Z,9.60
2022-10-08T19:14:17.183Z,9.40
2022-10-08T19:16:45.650Z,10.50
2022-10-08T19:19:19.564Z,9.70
2022-10-08T19:21:48.231Z,9.40
2022-10-08T19:24:21.444Z,9.40
2022-10-08T19:26:49.899Z,9.40
2022-10-08T19:29:20.547Z,11.10
2022-10-08T19:31:49.965Z,9.30
2022-10-08T19:34:23.072Z,9.10
2022-10-08T19:36:50.774Z,9.20
2022-10-08T19:39:20.923Z,9.20
2022-10-08T19:41:49.504Z,10.60
2022-10-08T19:44:17.306Z,9.10
2022-10-08T19:46:44.957Z,9.00
2022-10-08T19:49:12.979Z,9.00
2022-10-08T19:51:40.760Z,9.00
2022-10-08T19:54:08.232Z,8.90
2022-10-08T19:56:36.327Z,10.40
2022-10-08T19:59:04.752Z,9.20
2022-10-08T20:01:35.493Z,8.80
2022-10-08T20:04:05.040Z,10.10
2022-10-08T20:06:35.688Z,8.70
2022-10-08T20:09:05.024Z,8.70
2022-10-08T20:11:33.486Z,8.60
2022-10-08T20:14:01.559Z,8.60
2022-10-08T20:16:32.619Z,8.90
2022-10-08T20:19:02.886Z,9.40
2022-10-08T20:21:32.360Z,8.50
2022-10-08T20:24:00.347Z,8.50
2022-10-08T20:26:30.760Z,8.50
2022-10-08T20:29:09.496Z,9.10
2022-10-08T20:31:40.254Z,8.50
2022-10-08T20:34:12.980Z,8.50
2022-10-08T20:36:41.209Z,8.40
2022-10-08T20:39:08.612Z,8.40
2022-10-08T20:41:36.221Z,8.40
2022-10-08T20:44:04.733Z,9.70
2022-10-08T20:46:34.146Z,8.30
2022-10-08T20:49:02.564Z,8.20
2022-10-08T20:51:31.179Z,8.20
2022-10-08T20:54:10.366Z,8.20
2022-10-08T20:56:40.264Z,8.10
2022-10-08T20:59:10.896Z,8.20
2022-10-08T21:01:38.989Z,8.00
2022-10-08T21:04:06.935Z,8.60
2022-10-08T21:06:40.961Z,8.00
2022-10-08T21:09:09.314Z,8.20
2022-10-08T21:11:38.202Z,8.00
2022-10-08T21:14:07.722Z,8.00
2022-10-08T21:16:38.677Z,8.00
2022-10-08T21:19:10.583Z,8.00
2022-10-08T21:21:38.456Z,9.40
2022-10-08T21:24:06.181Z,9.30
2022-10-08T21:26:38.929Z,7.80
2022-10-08T21:29:09.332Z,7.80
2022-10-08T21:31:38.702Z,8.30
2022-10-08T21:34:06.923Z,7.80
2022-10-08T21:36:37.999Z,7.80
2022-10-08T21:39:07.710Z,7.70
2022-10-08T21:41:39.594Z,7.70
2022-10-08T21:44:08.005Z,8.30
2022-10-08T21:46:38.200Z,7.60
2022-10-08T21:49:08.806Z,7.50
2022-10-08T21:51:37.075Z,7.50
2022-10-08T21:54:06.652Z,7.50
2022-10-08T21:56:36.736Z,7.40
2022-10-08T21:59:06.556Z,7.50
2022-10-08T22:01:48.850Z,7.40
2022-10-08T22:04:17.747Z,7.50
2022-10-08T22:06:48.455Z,7.50
2022-10-08T22:09:22.519Z,7.50
2022-10-08T22:11:50.761Z,7.50
2022-10-08T22:14:18.548Z,7.50
2022-10-08T22:16:46.460Z,7.40
2022-10-08T22:19:14.858Z,7.40
2022-10-08T22:21:42.583Z,7.40
2022-10-08T22:24:10.475Z,7.30
2022-10-08T22:26:40.913Z,7.30
2022-10-08T22:29:08.529Z,7.80
2022-10-08T22:31:36.763Z,7.20
2022-10-08T22:34:04.281Z,7.20
2022-10-08T22:36:33.372Z,7.20
2022-10-08T22:39:00.848Z,7.10
2022-10-08T22:41:31.351Z,7.10
2022-10-08T22:43:59.480Z,7.10
2022-10-08T22:46:30.196Z,7.20
2022-10-08T22:48:59.963Z,7.10
2022-10-08T22:51:28.542Z,7.10
2022-10-08T22:53:56.407Z,7.10
2022-10-08T22:56:28.089Z,7.10
2022-10-08T22:58:56.097Z,7.10
2022-10-08T23:01:24.730Z,7.10
2022-10-08T23:03:53.096Z,7.20
2022-10-08T23:06:24.006Z,7.10
2022-10-08T23:08:57.308Z,7.50
2022-10-08T23:11:25.608Z,7.00
2022-10-08T23:13:55.384Z,6.90
2022-10-08T23:16:24.117Z,6.80
2022-10-08T23:18:54.922Z,6.80
2022-10-08T23:21:23.499Z,6.80
2022-10-08T23:23:52.019Z,7.70
2022-10-08T23:26:19.758Z,6.70
2022-10-08T23:28:55.959Z,6.70
2022-10-08T23:31:26.271Z,6.70
2022-10-08T23:33:55.171Z,7.60
2022-10-08T23:36:25.435Z,6.50
2022-10-08T23:38:53.014Z,6.50
2022-10-08T23:41:20.685Z,6.50
2022-10-08T23:43:49.524Z,6.40
2022-10-08T23:46:20.920Z,6.40
2022-10-08T23:48:49.183Z,6.30
2022-10-08T23:51:17.198Z,8.10
2022-10-08T23:53:45.174Z,6.20
2022-10-08T23:56:14.104Z,6.20
2022-10-08T23:58:42.129Z,6.20
